createdAt,value
2018-10-09T00:00:01.372Z,2
2018-10-09T00:00:31.345Z,2
2018-10-09T00:01:01.367Z,2
2018-10-09T00:01:31.427Z,2
2018-10-09T00:02:01.381Z,2
2018-10-09T00:02:32.343Z,2
2018-10-09T00:03:01.482Z,2
2018-10-09T00:03:31.340Z,2
2018-10-09T00:04:01.364Z,2
2018-10-09T00:04:31.329Z,2
2018-10-09T00:05:01.413Z,2
2018-10-09T00:05:31.340Z,2
2018-10-09T00:06:01.408Z,2
2018-10-09T00:06:31.435Z,2
2018-10-09T00:07:01.418Z,2
2018-10-09T00:07:31.335Z,2
2018-10-09T00:08:01.484Z,2
2018-10-09T00:08:31.337Z,2
2018-10-09T00:09:01.396Z,2
2018-10-09T00:09:31.355Z,2
2018-10-09T00:10:01.375Z,2
2018-10-09T00:10:31.405Z,2
2018-10-09T00:11:01.306Z,2
2018-10-09T00:11:31.471Z,2
2018-10-09T00:12:01.312Z,2
2018-10-09T00:12:31.359Z,2
2018-10-09T00:13:01.370Z,2
2018-10-09T00:13:31.383Z,2
2018-10-09T00:14:01.324Z,2
2018-10-09T00:14:31.392Z,2
2018-10-09T00:15:01.357Z,2
2018-10-09T00:15:31.456Z,2
2018-10-09T00:16:01.382Z,2
2018-10-09T00:16:31.430Z,2
2018-10-09T00:17:01.308Z,2
2018-10-09T00:17:31.355Z,2
2018-10-09T00:18:01.302Z,2
2018-10-09T00:18:31.412Z,2
2018-10-09T00:19:01.316Z,2
2018-10-09T00:19:31.360Z,2
2018-10-09T00:20:01.319Z,2
2018-10-09T00:20:31.400Z,2
2018-10-09T00:21:01.320Z,2
2018-10-09T00:21:32.552Z,2
2018-10-09T00:22:01.315Z,2
2018-10-09T00:23:01.371Z,1
2018-10-09T00:24:01.466Z,0
2018-10-09T00:25:01.349Z,1
2018-10-09T00:25:31.309Z,1
2018-10-09T00:26:01.388Z,1
2018-10-09T00:26:31.389Z,1
2018-10-09T00:27:01.341Z,1
2018-10-09T00:27:31.308Z,1
2018-10-09T00:28:01.413Z,1
2018-10-09T00:28:31.303Z,1
2018-10-09T00:29:01.407Z,1
2018-10-09T00:29:31.368Z,1
2018-10-09T00:30:01.445Z,1
2018-10-09T00:30:31.404Z,1
2018-10-09T00:31:01.295Z,1
2018-10-09T00:31:31.453Z,1
2018-10-09T00:32:01.439Z,1
2018-10-09T00:32:31.316Z,1
2018-10-09T00:33:01.344Z,1
2018-10-09T00:33:31.305Z,1
2018-10-09T00:34:01.355Z,1
2018-10-09T00:34:31.304Z,1
2018-10-09T00:35:01.396Z,1
2018-10-09T00:35:31.334Z,1
2018-10-09T00:36:01.367Z,1
2018-10-09T00:36:31.317Z,1
2018-10-09T00:37:01.494Z,1
2018-10-09T00:37:31.394Z,1
2018-10-09T00:38:01.369Z,1
2018-10-09T00:38:31.317Z,1
2018-10-09T00:39:01.449Z,1
2018-10-09T00:39:31.333Z,1
2018-10-09T00:40:01.384Z,1
2018-10-09T00:40:31.388Z,1
2018-10-09T00:41:01.356Z,1
2018-10-09T00:41:31.420Z,1
2018-10-09T00:42:01.370Z,1
2018-10-09T00:42:31.372Z,1
2018-10-09T00:43:01.394Z,1
2018-10-09T00:43:31.338Z,1
2018-10-09T00:44:01.376Z,1
2018-10-09T00:44:31.318Z,1
2018-10-09T00:45:01.377Z,1
2018-10-09T00:45:31.431Z,1
2018-10-09T00:46:01.394Z,1
2018-10-09T00:46:31.312Z,1
2018-10-09T00:47:03.383Z,1
2018-10-09T00:47:31.411Z,1
2018-10-09T00:48:01.393Z,1
2018-10-09T00:48:31.363Z,1
2018-10-09T00:49:01.420Z,1
2018-10-09T00:49:31.406Z,1
2018-10-09T00:50:01.365Z,1
2018-10-09T00:50:31.510Z,1
2018-10-09T00:51:01.408Z,1
2018-10-09T00:51:31.454Z,1
2018-10-09T00:52:01.373Z,1
2018-10-09T00:52:31.355Z,1
2018-10-09T00:53:01.328Z,1
2018-10-09T00:53:31.361Z,1
2018-10-09T00:54:01.319Z,1
2018-10-09T00:54:31.370Z,1
2018-10-09T00:55:01.454Z,1
2018-10-09T00:55:31.339Z,1
2018-10-09T00:56:01.446Z,1
2018-10-09T00:56:31.407Z,1
2018-10-09T00:57:01.356Z,1
2018-10-09T00:57:31.324Z,1
2018-10-09T00:58:01.405Z,1
2018-10-09T00:58:31.334Z,1
2018-10-09T00:59:01.364Z,1
2018-10-09T00:59:31.365Z,1
2018-10-09T01:00:01.395Z,1
2018-10-09T01:00:31.356Z,1
2018-10-09T01:01:01.351Z,1
2018-10-09T01:01:31.344Z,1
2018-10-09T01:02:01.459Z,1
2018-10-09T01:02:31.383Z,1
2018-10-09T01:03:01.306Z,1
2018-10-09T01:03:31.410Z,1
2018-10-09T01:04:01.370Z,1
2018-10-09T01:04:31.421Z,1
2018-10-09T01:05:01.392Z,1
2018-10-09T01:05:31.359Z,1
2018-10-09T01:06:01.496Z,1
2018-10-09T01:06:31.355Z,1
2018-10-09T01:07:01.320Z,1
2018-10-09T01:07:31.363Z,1
2018-10-09T01:08:01.284Z,1
2018-10-09T01:08:31.392Z,1
2018-10-09T01:09:01.379Z,1
2018-10-09T01:09:31.375Z,1
2018-10-09T01:10:01.372Z,1
2018-10-09T01:10:31.331Z,1
2018-10-09T01:11:01.413Z,1
2018-10-09T01:11:31.297Z,1
2018-10-09T01:12:01.373Z,1
2018-10-09T01:12:33.292Z,1
2018-10-09T01:13:01.376Z,1
2018-10-09T01:13:31.388Z,1
2018-10-09T01:14:01.354Z,1
2018-10-09T01:14:31.350Z,1
2018-10-09T01:15:01.393Z,1
2018-10-09T01:15:31.419Z,1
2018-10-09T01:16:01.408Z,1
2018-10-09T01:16:31.378Z,1
2018-10-09T01:17:01.380Z,1
2018-10-09T01:17:31.350Z,1
2018-10-09T01:18:01.375Z,1
2018-10-09T01:18:31.451Z,1
2018-10-09T01:19:01.381Z,1
2018-10-09T01:19:31.291Z,1
2018-10-09T01:20:01.352Z,1
2018-10-09T01:20:31.402Z,1
2018-10-09T01:21:01.404Z,1
2018-10-09T01:21:31.324Z,1
2018-10-09T01:22:01.407Z,1
2018-10-09T01:22:31.363Z,1
2018-10-09T01:23:01.325Z,1
2018-10-09T01:23:31.379Z,1
2018-10-09T01:24:01.457Z,1
2018-10-09T01:24:31.312Z,1
2018-10-09T01:25:01.358Z,1
2018-10-09T01:25:31.347Z,1
2018-10-09T01:26:01.417Z,1
2018-10-09T01:26:31.409Z,1
2018-10-09T01:27:01.426Z,1
2018-10-09T01:27:31.409Z,1
2018-10-09T01:28:01.351Z,1
2018-10-09T01:28:31.373Z,1
2018-10-09T01:29:01.410Z,1
2018-10-09T01:29:31.298Z,1
2018-10-09T01:30:01.354Z,1
2018-10-09T01:30:31.309Z,1
2018-10-09T01:31:01.458Z,1
2018-10-09T01:31:34.384Z,1
2018-10-09T01:32:01.365Z,1
2018-10-09T01:32:31.344Z,1
2018-10-09T01:33:01.369Z,1
2018-10-09T01:33:31.332Z,1
2018-10-09T01:34:01.358Z,1
2018-10-09T01:34:31.298Z,1
2018-10-09T01:35:01.359Z,1
2018-10-09T01:35:31.366Z,1
2018-10-09T01:36:01.471Z,1
2018-10-09T01:36:31.347Z,1
2018-10-09T01:37:01.315Z,1
2018-10-09T01:37:31.379Z,1
2018-10-09T01:38:01.376Z,1
2018-10-09T01:38:31.299Z,1
2018-10-09T01:39:01.388Z,1
2018-10-09T01:39:31.389Z,1
2018-10-09T01:40:01.330Z,1
2018-10-09T01:40:31.412Z,1
2018-10-09T01:41:01.438Z,1
2018-10-09T01:41:31.399Z,1
2018-10-09T01:42:01.424Z,1
2018-10-09T01:42:31.372Z,1
2018-10-09T01:43:01.510Z,1
2018-10-09T01:43:31.374Z,1
2018-10-09T01:44:01.457Z,1
2018-10-09T01:44:31.405Z,1
2018-10-09T01:45:01.514Z,1
2018-10-09T01:45:31.509Z,1
2018-10-09T01:46:01.548Z,1
2018-10-09T01:46:31.454Z,1
2018-10-09T01:47:01.502Z,1
2018-10-09T01:47:31.575Z,1
2018-10-09T01:48:01.561Z,1
2018-10-09T01:48:31.524Z,1
2018-10-09T01:49:01.529Z,1
2018-10-09T01:49:31.517Z,1
2018-10-09T01:50:01.552Z,1
2018-10-09T01:50:31.585Z,1
2018-10-09T01:51:01.755Z,1
2018-10-09T01:51:31.545Z,1
2018-10-09T01:52:01.631Z,1
2018-10-09T01:52:31.609Z,1
2018-10-09T01:53:01.661Z,1
2018-10-09T01:53:32.570Z,1
2018-10-09T01:54:01.655Z,1
2018-10-09T01:54:31.731Z,1
2018-10-09T01:55:01.744Z,1
2018-10-09T01:55:31.657Z,1
2018-10-09T01:56:01.673Z,1
2018-10-09T01:56:31.589Z,1
2018-10-09T01:57:01.717Z,1
2018-10-09T01:57:31.692Z,1
2018-10-09T01:58:01.656Z,1
2018-10-09T01:58:31.644Z,1
2018-10-09T01:59:01.605Z,1
2018-10-09T01:59:31.705Z,1
2018-10-09T02:00:01.668Z,1
2018-10-09T02:00:31.593Z,1
2018-10-09T02:01:01.649Z,1
2018-10-09T02:01:31.614Z,1
2018-10-09T02:02:01.676Z,1
2018-10-09T02:02:31.600Z,1
2018-10-09T02:03:01.669Z,1
2018-10-09T02:03:31.592Z,1
2018-10-09T02:04:01.796Z,1
2018-10-09T02:04:31.656Z,1
2018-10-09T02:05:01.702Z,1
2018-10-09T02:05:31.654Z,1
2018-10-09T02:06:01.594Z,1
2018-10-09T02:06:31.659Z,1
2018-10-09T02:07:01.613Z,1
2018-10-09T02:07:31.665Z,1
2018-10-09T02:08:01.612Z,1
2018-10-09T02:08:31.790Z,1
2018-10-09T02:09:01.613Z,1
2018-10-09T02:09:31.728Z,1
2018-10-09T02:10:01.673Z,1
2018-10-09T02:10:31.620Z,1
2018-10-09T02:11:02.682Z,1
2018-10-09T02:11:31.673Z,1
2018-10-09T02:12:01.653Z,1
2018-10-09T02:12:31.638Z,1
2018-10-09T02:13:01.654Z,1
2018-10-09T02:13:31.667Z,1
2018-10-09T02:14:01.654Z,1
2018-10-09T02:14:31.713Z,1
2018-10-09T02:15:01.738Z,1
2018-10-09T02:15:31.657Z,1
2018-10-09T02:16:01.662Z,1
2018-10-09T02:16:31.659Z,1
2018-10-09T02:17:01.686Z,1
2018-10-09T02:17:31.652Z,1
2018-10-09T02:18:01.598Z,1
2018-10-09T02:18:31.650Z,1
2018-10-09T02:19:01.610Z,1
2018-10-09T02:19:31.696Z,1
2018-10-09T02:20:02.627Z,1
2018-10-09T02:20:31.681Z,1
2018-10-09T02:21:01.669Z,1
2018-10-09T02:21:31.642Z,1
2018-10-09T02:22:01.637Z,1
2018-10-09T02:22:31.648Z,1
2018-10-09T02:23:01.622Z,1
2018-10-09T02:23:31.654Z,1
2018-10-09T02:24:01.637Z,1
2018-10-09T02:24:31.739Z,1
2018-10-09T02:25:01.622Z,1
2018-10-09T02:25:31.730Z,1
2018-10-09T02:26:01.648Z,1
2018-10-09T02:26:31.669Z,1
2018-10-09T02:27:01.640Z,1
2018-10-09T02:27:31.652Z,1
2018-10-09T02:28:01.676Z,1
2018-10-09T02:28:31.690Z,1
2018-10-09T02:29:01.659Z,1
2018-10-09T02:29:31.715Z,1
2018-10-09T02:30:01.782Z,1
2018-10-09T02:30:31.622Z,1
2018-10-09T02:31:01.709Z,1
2018-10-09T02:31:31.656Z,1
2018-10-09T02:32:01.665Z,1
2018-10-09T02:32:31.611Z,1
2018-10-09T02:33:01.754Z,1
2018-10-09T02:33:31.710Z,1
2018-10-09T02:34:01.652Z,1
2018-10-09T02:34:31.678Z,1
2018-10-09T02:35:01.643Z,1
2018-10-09T02:35:31.635Z,1
2018-10-09T02:36:01.669Z,1
2018-10-09T02:36:31.660Z,1
2018-10-09T02:37:01.731Z,1
2018-10-09T02:37:31.650Z,1
2018-10-09T02:38:01.681Z,1
2018-10-09T02:38:31.663Z,1
2018-10-09T02:39:01.610Z,1
2018-10-09T02:39:31.763Z,1
2018-10-09T02:40:01.669Z,1
2018-10-09T02:40:31.661Z,1
2018-10-09T02:41:01.689Z,1
2018-10-09T02:41:31.643Z,1
2018-10-09T02:42:01.627Z,1
2018-10-09T02:42:31.636Z,1
2018-10-09T02:43:01.702Z,1
2018-10-09T02:43:31.625Z,1
2018-10-09T02:44:01.647Z,1
2018-10-09T02:44:31.704Z,1
2018-10-09T02:45:01.689Z,1
2018-10-09T02:45:31.647Z,1
2018-10-09T02:46:01.736Z,1
2018-10-09T02:46:31.622Z,1
2018-10-09T02:47:01.667Z,1
2018-10-09T02:47:31.626Z,1
2018-10-09T02:48:01.765Z,1
2018-10-09T02:48:31.604Z,1
2018-10-09T02:49:01.671Z,1
2018-10-09T02:49:31.748Z,1
2018-10-09T02:50:01.693Z,1
2018-10-09T02:50:31.624Z,1
2018-10-09T02:51:01.663Z,1
2018-10-09T02:51:31.617Z,1
2018-10-09T02:52:01.759Z,1
2018-10-09T02:52:31.604Z,1
2018-10-09T02:53:01.674Z,1
2018-10-09T02:53:31.596Z,1
2018-10-09T02:54:01.684Z,1
2018-10-09T02:54:31.769Z,1
2018-10-09T02:55:01.652Z,1
2018-10-09T02:55:31.680Z,1
2018-10-09T02:56:01.683Z,1
2018-10-09T02:56:31.711Z,1
2018-10-09T02:57:01.605Z,1
2018-10-09T02:57:31.713Z,1
2018-10-09T02:58:01.608Z,1
2018-10-09T02:58:31.689Z,1
2018-10-09T02:59:01.660Z,1
2018-10-09T02:59:31.799Z,1
2018-10-09T03:00:01.683Z,1
2018-10-09T03:00:31.665Z,1
2018-10-09T03:01:01.681Z,1
2018-10-09T03:01:31.670Z,1
2018-10-09T03:02:01.619Z,1
2018-10-09T03:02:31.676Z,1
2018-10-09T03:03:01.619Z,1
2018-10-09T03:03:31.683Z,1
2018-10-09T03:04:01.679Z,1
2018-10-09T03:04:31.740Z,1
2018-10-09T03:05:01.661Z,1
2018-10-09T03:05:31.665Z,1
2018-10-09T03:06:01.674Z,1
2018-10-09T03:06:31.694Z,1
2018-10-09T03:07:01.621Z,1
2018-10-09T03:07:31.675Z,1
2018-10-09T03:08:01.618Z,1
2018-10-09T03:08:31.847Z,1
2018-10-09T03:09:01.619Z,1
2018-10-09T03:09:31.740Z,1
2018-10-09T03:10:01.613Z,1
2018-10-09T03:10:31.665Z,1
2018-10-09T03:11:01.648Z,1
2018-10-09T03:11:31.712Z,1
2018-10-09T03:12:01.643Z,1
2018-10-09T03:12:31.748Z,1
2018-10-09T03:13:01.658Z,1
2018-10-09T03:13:31.608Z,1
2018-10-09T03:14:01.661Z,1
2018-10-09T03:14:31.663Z,1
2018-10-09T03:15:01.671Z,1
2018-10-09T03:15:31.660Z,1
2018-10-09T03:16:02.707Z,1
2018-10-09T03:16:31.700Z,1
2018-10-09T03:17:01.678Z,1
2018-10-09T03:17:31.629Z,1
2018-10-09T03:18:01.703Z,1
2018-10-09T03:18:31.909Z,1
2018-10-09T03:19:01.622Z,1
2018-10-09T03:19:31.696Z,1
2018-10-09T03:20:01.621Z,1
2018-10-09T03:20:31.800Z,1
2018-10-09T03:21:01.661Z,1
2018-10-09T03:21:31.818Z,1
2018-10-09T03:22:01.674Z,1
2018-10-09T03:22:31.658Z,1
2018-10-09T03:23:01.708Z,1
2018-10-09T03:23:31.758Z,1
2018-10-09T03:24:01.669Z,1
2018-10-09T03:24:31.693Z,1
2018-10-09T03:25:01.623Z,1
2018-10-09T03:25:31.687Z,1
2018-10-09T03:26:01.678Z,1
2018-10-09T03:26:31.742Z,1
2018-10-09T03:27:01.674Z,1
2018-10-09T03:27:31.670Z,1
2018-10-09T03:28:01.673Z,1
2018-10-09T03:28:31.664Z,1
2018-10-09T03:29:01.678Z,1
2018-10-09T03:29:31.650Z,1
2018-10-09T03:30:01.901Z,1
2018-10-09T03:30:32.775Z,1
2018-10-09T03:31:01.692Z,1
2018-10-09T03:31:31.839Z,1
2018-10-09T03:32:01.866Z,1
2018-10-09T03:32:31.675Z,1
2018-10-09T03:33:02.839Z,1
2018-10-09T03:33:32.752Z,1
2018-10-09T03:34:01.708Z,1
2018-10-09T03:34:31.761Z,1
2018-10-09T03:35:01.675Z,1
2018-10-09T03:35:31.709Z,1
2018-10-09T03:36:01.744Z,1
2018-10-09T03:36:31.737Z,1
2018-10-09T03:37:01.718Z,1
2018-10-09T03:37:31.662Z,1
2018-10-09T03:38:01.677Z,1
2018-10-09T03:38:31.609Z,1
2018-10-09T03:39:01.667Z,1
2018-10-09T03:39:31.768Z,1
2018-10-09T03:40:01.685Z,1
2018-10-09T03:40:31.679Z,1
2018-10-09T03:41:01.743Z,1
2018-10-09T03:41:31.899Z,1
2018-10-09T03:42:01.695Z,1
2018-10-09T03:42:31.691Z,1
2018-10-09T03:45:01.670Z,1
2018-10-09T03:45:31.681Z,1
2018-10-09T03:47:01.835Z,1
2018-10-09T03:47:33.640Z,1
2018-10-09T03:50:01.682Z,1
2018-10-09T03:50:31.652Z,1
2018-10-09T03:51:01.680Z,1
2018-10-09T03:51:31.647Z,1
2018-10-09T03:52:01.771Z,1
2018-10-09T03:52:31.693Z,1
2018-10-09T03:53:01.706Z,1
2018-10-09T03:53:31.637Z,1
2018-10-09T03:54:01.775Z,1
2018-10-09T03:54:31.683Z,1
2018-10-09T03:55:01.715Z,1
2018-10-09T03:55:31.658Z,1
2018-10-09T03:56:04.766Z,1
2018-10-09T03:56:31.646Z,1
2018-10-09T03:57:01.841Z,1
2018-10-09T03:57:31.650Z,1
2018-10-09T03:58:01.699Z,1
2018-10-09T03:58:31.706Z,1
2018-10-09T03:59:01.724Z,1
2018-10-09T03:59:31.661Z,1
2018-10-09T04:00:01.716Z,1
2018-10-09T04:00:31.721Z,1
2018-10-09T04:01:01.784Z,1
2018-10-09T04:01:31.694Z,1
2018-10-09T04:02:01.760Z,1
2018-10-09T04:02:31.641Z,1
2018-10-09T04:03:01.699Z,1
2018-10-09T04:03:31.653Z,1
2018-10-09T04:04:01.688Z,1
2018-10-09T04:04:31.809Z,1
2018-10-09T04:05:01.693Z,1
2018-10-09T04:05:31.712Z,1
2018-10-09T04:06:01.700Z,1
2018-10-09T04:06:31.649Z,1
2018-10-09T04:07:01.841Z,1
2018-10-09T04:07:31.782Z,1
2018-10-09T04:08:01.647Z,1
2018-10-09T04:08:31.690Z,1
2018-10-09T04:09:01.741Z,1
2018-10-09T04:09:31.786Z,1
2018-10-09T04:10:01.806Z,1
2018-10-09T04:10:31.724Z,1
2018-10-09T04:11:01.721Z,1
2018-10-09T04:11:31.653Z,1
2018-10-09T04:12:01.808Z,1
2018-10-09T04:12:31.811Z,1
2018-10-09T04:13:01.708Z,1
2018-10-09T04:13:31.758Z,1
2018-10-09T04:14:01.729Z,1
2018-10-09T04:14:31.725Z,1
2018-10-09T04:15:01.681Z,1
2018-10-09T04:15:31.710Z,1
2018-10-09T04:16:02.769Z,1
2018-10-09T04:16:31.650Z,1
2018-10-09T04:17:01.691Z,1
2018-10-09T04:17:31.758Z,1
2018-10-09T04:18:01.703Z,1
2018-10-09T04:18:31.715Z,1
2018-10-09T04:19:01.705Z,1
2018-10-09T04:19:31.727Z,1
2018-10-09T04:20:01.720Z,1
2018-10-09T04:20:31.714Z,1
2018-10-09T04:21:01.661Z,1
2018-10-09T04:21:31.703Z,1
2018-10-09T04:22:01.737Z,1
2018-10-09T04:22:31.830Z,1
2018-10-09T04:23:01.666Z,1
2018-10-09T04:23:31.703Z,1
2018-10-09T04:24:01.756Z,1
2018-10-09T04:24:31.726Z,1
2018-10-09T04:25:01.699Z,1
2018-10-09T04:25:31.646Z,1
2018-10-09T04:26:01.718Z,1
2018-10-09T04:26:31.711Z,1
2018-10-09T04:27:01.639Z,1
2018-10-09T04:27:31.767Z,1
2018-10-09T04:28:01.778Z,1
2018-10-09T04:28:31.676Z,1
2018-10-09T04:29:01.700Z,1
2018-10-09T04:29:31.746Z,1
2018-10-09T04:30:01.761Z,1
2018-10-09T04:30:31.674Z,1
2018-10-09T04:31:01.709Z,1
2018-10-09T04:31:31.636Z,1
2018-10-09T04:32:01.730Z,1
2018-10-09T04:32:31.789Z,1
2018-10-09T04:33:01.755Z,1
2018-10-09T04:33:31.684Z,1
2018-10-09T04:34:01.706Z,1
2018-10-09T04:34:31.649Z,1
2018-10-09T04:35:01.998Z,1
2018-10-09T04:35:31.690Z,1
2018-10-09T04:36:02.718Z,1
2018-10-09T04:36:31.639Z,1
2018-10-09T04:37:01.751Z,1
2018-10-09T04:37:31.740Z,1
2018-10-09T04:38:01.766Z,1
2018-10-09T04:38:31.647Z,1
2018-10-09T04:39:01.747Z,1
2018-10-09T04:39:31.720Z,1
2018-10-09T04:40:01.707Z,1
2018-10-09T04:40:31.681Z,1
2018-10-09T04:41:01.732Z,1
2018-10-09T04:41:31.704Z,1
2018-10-09T04:42:01.733Z,1
2018-10-09T04:42:31.887Z,1
2018-10-09T04:43:01.697Z,1
2018-10-09T04:43:31.892Z,1
2018-10-09T04:44:01.854Z,1
2018-10-09T04:44:31.690Z,1
2018-10-09T04:45:03.205Z,1
2018-10-09T04:45:31.729Z,2
2018-10-09T04:46:01.861Z,1
2018-10-09T04:46:31.754Z,1
2018-10-09T04:47:02.948Z,1
2018-10-09T04:47:31.765Z,1
2018-10-09T04:48:01.867Z,1
2018-10-09T04:48:32.002Z,1
2018-10-09T04:49:03.085Z,1
2018-10-09T04:49:31.853Z,1
2018-10-09T04:50:01.869Z,1
2018-10-09T04:50:31.876Z,1
2018-10-09T04:51:02.117Z,1
2018-10-09T04:51:33.070Z,1
2018-10-09T04:52:01.815Z,1
2018-10-09T04:52:32.965Z,1
2018-10-09T04:53:03.428Z,1
2018-10-09T04:53:31.955Z,1
2018-10-09T04:54:03.197Z,1
2018-10-09T04:54:31.694Z,1
2018-10-09T04:55:01.862Z,1
2018-10-09T04:55:31.798Z,1
2018-10-09T04:56:01.732Z,1
2018-10-09T04:56:31.678Z,1
2018-10-09T04:57:01.830Z,1
2018-10-09T04:57:31.678Z,1
2018-10-09T04:58:01.753Z,1
2018-10-09T04:58:31.672Z,1
2018-10-09T04:59:01.770Z,1
2018-10-09T04:59:31.671Z,1
2018-10-09T05:00:01.782Z,1
2018-10-09T05:00:31.770Z,1
2018-10-09T05:01:01.754Z,1
2018-10-09T05:01:31.702Z,1
2018-10-09T05:02:02.788Z,1
2018-10-09T05:02:31.703Z,1
2018-10-09T05:03:01.767Z,1
2018-10-09T05:03:31.947Z,1
2018-10-09T05:04:01.715Z,1
2018-10-09T05:04:31.732Z,1
2018-10-09T05:05:03.131Z,1
2018-10-09T05:05:31.812Z,1
2018-10-09T05:06:01.763Z,1
2018-10-09T05:06:31.724Z,1
2018-10-09T05:07:01.748Z,1
2018-10-09T05:07:31.692Z,1
2018-10-09T05:08:01.720Z,1
2018-10-09T05:08:31.688Z,1
2018-10-09T05:09:01.752Z,1
2018-10-09T05:09:31.706Z,1
2018-10-09T05:10:01.639Z,1
2018-10-09T05:10:31.734Z,1
2018-10-09T05:11:01.641Z,1
2018-10-09T05:11:31.692Z,1
2018-10-09T05:12:01.753Z,1
2018-10-09T05:12:31.693Z,1
2018-10-09T05:13:01.649Z,1
2018-10-09T05:13:31.693Z,2
2018-10-09T05:14:01.684Z,2
2018-10-09T05:14:31.647Z,1
2018-10-09T05:15:01.718Z,1
2018-10-09T05:15:31.640Z,1
2018-10-09T05:16:01.718Z,1
2018-10-09T05:16:31.638Z,1
2018-10-09T05:17:01.836Z,1
2018-10-09T05:17:31.676Z,1
2018-10-09T05:18:01.688Z,1
2018-10-09T05:18:31.717Z,1
2018-10-09T05:19:02.742Z,1
2018-10-09T05:19:31.647Z,1
2018-10-09T05:20:01.734Z,1
2018-10-09T05:20:31.649Z,1
2018-10-09T05:21:01.706Z,1
2018-10-09T05:21:31.758Z,1
2018-10-09T05:22:01.738Z,1
2018-10-09T05:22:31.631Z,1
2018-10-09T05:23:01.682Z,1
2018-10-09T05:23:33.953Z,2
2018-10-09T05:24:01.775Z,2
2018-10-09T05:24:31.646Z,1
2018-10-09T05:25:01.698Z,1
2018-10-09T05:25:31.745Z,1
2018-10-09T05:26:01.700Z,1
2018-10-09T05:26:31.679Z,1
2018-10-09T05:27:01.723Z,1
2018-10-09T05:27:31.635Z,1
2018-10-09T05:28:01.829Z,1
2018-10-09T05:28:31.635Z,1
2018-10-09T05:29:01.726Z,1
2018-10-09T05:29:31.667Z,1
2018-10-09T05:30:01.727Z,1
2018-10-09T05:30:31.805Z,1
2018-10-09T05:31:02.724Z,2
2018-10-09T05:31:31.746Z,2
2018-10-09T05:32:01.757Z,1
2018-10-09T05:32:31.644Z,1
2018-10-09T05:33:01.688Z,1
2018-10-09T05:33:31.638Z,1
2018-10-09T05:34:01.753Z,1
2018-10-09T05:34:31.638Z,2
2018-10-09T05:35:01.695Z,2
2018-10-09T05:35:31.796Z,1
2018-10-09T05:36:01.697Z,1
2018-10-09T05:36:31.723Z,1
2018-10-09T05:37:02.694Z,1
2018-10-09T05:37:31.712Z,1
2018-10-09T05:38:01.736Z,1
2018-10-09T05:38:31.704Z,1
2018-10-09T05:39:01.725Z,1
2018-10-09T05:39:31.759Z,1
2018-10-09T05:40:01.726Z,1
2018-10-09T05:40:31.749Z,1
2018-10-09T05:41:01.722Z,1
2018-10-09T05:41:31.673Z,1
2018-10-09T05:42:01.700Z,1
2018-10-09T05:42:31.652Z,2
2018-10-09T05:43:01.905Z,2
2018-10-09T05:43:31.663Z,3
2018-10-09T05:44:01.717Z,2
2018-10-09T05:44:31.699Z,2
2018-10-09T05:45:01.922Z,2
2018-10-09T05:45:31.784Z,2
2018-10-09T05:46:01.710Z,2
2018-10-09T05:46:31.748Z,2
2018-10-09T05:47:01.671Z,3
2018-10-09T05:47:31.894Z,3
2018-10-09T05:48:01.757Z,3
2018-10-09T05:48:31.705Z,3
2018-10-09T05:49:01.711Z,3
2018-10-09T05:49:33.748Z,3
2018-10-09T05:50:01.699Z,3
2018-10-09T05:50:31.778Z,3
2018-10-09T05:51:01.696Z,3
2018-10-09T05:51:31.638Z,3
2018-10-09T05:52:01.680Z,5
2018-10-09T05:52:31.705Z,5
2018-10-09T05:53:01.692Z,5
2018-10-09T05:53:31.637Z,6
2018-10-09T05:54:01.853Z,8
2018-10-09T05:54:31.726Z,7
2018-10-09T05:55:01.750Z,5
2018-10-09T05:55:31.797Z,4
2018-10-09T05:56:03.187Z,5
2018-10-09T05:56:31.693Z,4
2018-10-09T05:57:01.713Z,4
2018-10-09T05:57:31.646Z,3
2018-10-09T05:58:01.915Z,4
2018-10-09T05:58:31.852Z,3
2018-10-09T05:59:01.705Z,2
2018-10-09T05:59:31.654Z,2
2018-10-09T06:00:01.702Z,2
2018-10-09T06:00:31.641Z,2
2018-10-09T06:01:01.812Z,2
2018-10-09T06:01:31.861Z,2
2018-10-09T06:02:01.734Z,2
2018-10-09T06:02:31.674Z,2
2018-10-09T06:03:01.714Z,2
2018-10-09T06:03:31.660Z,3
2018-10-09T06:04:01.696Z,3
2018-10-09T06:04:31.692Z,2
2018-10-09T06:05:01.687Z,2
2018-10-09T06:05:31.653Z,2
2018-10-09T06:06:01.749Z,2
2018-10-09T06:06:31.751Z,2
2018-10-09T06:07:01.697Z,2
2018-10-09T06:07:31.753Z,2
2018-10-09T06:08:01.728Z,2
2018-10-09T06:08:31.709Z,2
2018-10-09T06:09:01.662Z,2
2018-10-09T06:09:31.692Z,2
2018-10-09T06:10:01.670Z,2
2018-10-09T06:10:31.718Z,2
2018-10-09T06:11:01.781Z,2
2018-10-09T06:11:31.794Z,1
2018-10-09T06:12:01.689Z,1
2018-10-09T06:12:31.691Z,1
2018-10-09T06:13:04.657Z,2
2018-10-09T06:13:33.091Z,4
2018-10-09T06:14:01.667Z,3
2018-10-09T06:14:31.710Z,4
2018-10-09T06:15:01.961Z,4
2018-10-09T06:15:31.818Z,2
2018-10-09T06:16:01.868Z,3
2018-10-09T06:16:31.971Z,3
2018-10-09T06:17:02.842Z,2
2018-10-09T06:17:31.777Z,1
2018-10-09T06:18:01.743Z,1
2018-10-09T06:18:31.809Z,1
2018-10-09T06:19:01.819Z,2
2018-10-09T06:19:31.752Z,2
2018-10-09T06:20:01.928Z,3
2018-10-09T06:20:31.837Z,2
2018-10-09T06:21:01.905Z,3
2018-10-09T06:21:31.863Z,3
2018-10-09T06:22:01.913Z,3
2018-10-09T06:22:31.830Z,2
2018-10-09T06:23:01.925Z,1
2018-10-09T06:23:31.910Z,2
2018-10-09T06:24:01.888Z,2
2018-10-09T06:24:31.880Z,1
2018-10-09T06:25:01.948Z,2
2018-10-09T06:25:32.943Z,2
2018-10-09T06:26:02.019Z,1
2018-10-09T06:26:31.923Z,2
2018-10-09T06:27:02.774Z,2
2018-10-09T06:27:41.567Z,3
2018-10-09T06:28:02.345Z,3
2018-10-09T06:28:32.087Z,2
2018-10-09T06:29:01.977Z,1
2018-10-09T06:29:33.028Z,2
2018-10-09T06:30:03.198Z,3
2018-10-09T06:30:33.141Z,2
2018-10-09T06:31:02.177Z,2
2018-10-09T06:31:32.151Z,2
2018-10-09T06:32:02.192Z,3
2018-10-09T06:32:32.548Z,3
2018-10-09T06:33:02.237Z,3
2018-10-09T06:33:32.114Z,2
2018-10-09T06:34:02.430Z,2
2018-10-09T06:34:32.134Z,1
2018-10-09T06:35:02.134Z,1
2018-10-09T06:35:32.141Z,1
2018-10-09T06:36:02.147Z,3
2018-10-09T06:36:32.195Z,3
2018-10-09T06:37:02.133Z,2
2018-10-09T06:37:32.134Z,1
2018-10-09T06:38:02.139Z,1
2018-10-09T06:38:32.158Z,1
2018-10-09T06:39:02.247Z,1
2018-10-09T06:39:32.187Z,1
2018-10-09T06:40:02.187Z,1
2018-10-09T06:40:32.178Z,1
2018-10-09T06:41:02.229Z,1
2018-10-09T06:41:32.948Z,2
2018-10-09T06:42:02.128Z,2
2018-10-09T06:42:32.221Z,2
2018-10-09T06:43:02.145Z,2
2018-10-09T06:43:32.214Z,2
2018-10-09T06:44:02.183Z,2
2018-10-09T06:44:32.163Z,2
2018-10-09T06:45:02.221Z,2
2018-10-09T06:45:32.163Z,2
2018-10-09T06:46:02.227Z,2
2018-10-09T06:46:32.162Z,2
2018-10-09T06:47:02.198Z,2
2018-10-09T06:47:32.354Z,2
2018-10-09T06:48:02.268Z,2
2018-10-09T06:48:32.117Z,2
2018-10-09T06:49:02.178Z,2
2018-10-09T06:49:33.421Z,2
2018-10-09T06:50:02.319Z,2
2018-10-09T06:50:32.171Z,2
2018-10-09T06:51:02.198Z,2
2018-10-09T06:51:32.241Z,2
2018-10-09T06:52:02.194Z,2
2018-10-09T06:52:32.162Z,2
2018-10-09T06:53:02.258Z,2
2018-10-09T06:53:32.252Z,2
2018-10-09T06:54:02.512Z,2
2018-10-09T06:54:32.348Z,2
2018-10-09T06:55:03.301Z,2
2018-10-09T06:55:32.244Z,2
2018-10-09T06:56:02.238Z,2
2018-10-09T06:56:32.315Z,2
2018-10-09T06:57:02.405Z,2
2018-10-09T06:57:32.281Z,2
2018-10-09T06:58:02.255Z,2
2018-10-09T06:58:32.279Z,2
2018-10-09T06:59:03.232Z,2
2018-10-09T06:59:32.297Z,2
2018-10-09T07:00:02.341Z,2
2018-10-09T07:00:32.193Z,2
2018-10-09T07:01:02.308Z,1
2018-10-09T07:01:32.184Z,1
2018-10-09T07:02:02.299Z,1
2018-10-09T07:02:32.422Z,2
2018-10-09T07:03:03.246Z,2
2018-10-09T07:03:32.257Z,1
2018-10-09T07:04:02.399Z,1
2018-10-09T07:04:32.289Z,1
2018-10-09T07:05:02.287Z,1
2018-10-09T07:05:32.180Z,1
2018-10-09T07:06:32.499Z,1
2018-10-09T07:07:02.310Z,1
2018-10-09T07:07:32.255Z,1
2018-10-09T07:08:02.269Z,1
2018-10-09T07:08:32.299Z,1
2018-10-09T07:10:02.374Z,1
2018-10-09T07:12:36.284Z,2
2018-10-09T07:13:02.217Z,2
2018-10-09T07:13:33.310Z,3
2018-10-09T07:14:02.195Z,3
2018-10-09T07:14:32.290Z,3
2018-10-09T07:15:02.403Z,2
2018-10-09T07:15:32.234Z,2
2018-10-09T07:16:02.395Z,3
2018-10-09T07:16:33.245Z,2
2018-10-09T07:17:02.316Z,2
2018-10-09T07:17:32.256Z,2
2018-10-09T07:18:02.345Z,2
2018-10-09T07:18:32.291Z,2
2018-10-09T07:19:02.289Z,3
2018-10-09T07:19:32.366Z,3
2018-10-09T07:20:03.306Z,2
2018-10-09T07:20:32.238Z,2
2018-10-09T07:21:02.284Z,2
2018-10-09T07:21:32.256Z,2
2018-10-09T07:22:02.228Z,2
2018-10-09T07:22:32.269Z,2
2018-10-09T07:23:02.211Z,2
2018-10-09T07:23:32.237Z,2
2018-10-09T07:24:02.347Z,2
2018-10-09T07:24:32.352Z,2
2018-10-09T07:25:02.342Z,2
2018-10-09T07:25:32.331Z,2
2018-10-09T07:26:02.178Z,2
2018-10-09T07:26:32.254Z,2
2018-10-09T07:27:02.201Z,2
2018-10-09T07:27:32.284Z,2
2018-10-09T07:28:02.388Z,2
2018-10-09T07:28:32.269Z,2
2018-10-09T07:29:02.318Z,2
2018-10-09T07:29:32.396Z,2
2018-10-09T07:30:02.285Z,2
2018-10-09T07:30:32.270Z,1
2018-10-09T07:31:02.365Z,1
2018-10-09T07:31:32.334Z,1
2018-10-09T07:32:02.268Z,1
2018-10-09T07:32:32.351Z,1
2018-10-09T07:33:02.208Z,1
2018-10-09T07:33:32.291Z,1